createdAt,value
2022-07-29T00:02:04.096Z,23.07
2022-07-29T00:05:06.704Z,23.18
2022-07-29T00:08:12.525Z,23.10
2022-07-29T00:11:14.974Z,23.04
2022-07-29T00:14:17.489Z,23.03
2022-07-29T00:17:20.068Z,23.07
2022-07-29T00:20:22.325Z,23.05
2022-07-29T00:23:24.560Z,22.84
2022-07-29T00:26:28.775Z,22.85
2022-07-29T00:29:33.940Z,22.91
2022-07-29T00:32:36.611Z,22.72
2022-07-29T00:35:45.126Z,22.82
2022-07-29T00:38:49.009Z,22.67
2022-07-29T00:41:51.444Z,22.79
2022-07-29T00:44:53.685Z,22.78
2022-07-29T00:47:55.905Z,22.68
2022-07-29T00:50:59.608Z,22.60
2022-07-29T00:54:01.901Z,22.55
2022-07-29T00:57:04.241Z,22.46
2022-07-29T01:00:13.583Z,22.32
2022-07-29T01:03:15.808Z,22.27
2022-07-29T01:06:19.494Z,22.15
2022-07-29T01:09:34.467Z,22.01
2022-07-29T01:12:46.430Z,21.96
2022-07-29T01:15:56.922Z,21.76
2022-07-29T01:19:09.169Z,21.75
2022-07-29T01:22:27.541Z,21.65
2022-07-29T01:25:35.689Z,21.76
2022-07-29T01:29:07.512Z,21.72
2022-07-29T01:32:27.498Z,21.90
2022-07-29T01:35:36.664Z,21.80
2022-07-29T01:38:40.699Z,21.51
2022-07-29T01:41:50.618Z,21.34
2022-07-29T01:44:58.494Z,21.19
2022-07-29T01:48:06.300Z,21.44
2022-07-29T01:51:22.046Z,21.55
2022-07-29T01:54:38.575Z,21.58
2022-07-29T01:57:41.875Z,21.39
2022-07-29T02:00:46.220Z,21.24
2022-07-29T02:03:50.129Z,21.56
2022-07-29T02:06:54.163Z,21.33
2022-07-29T02:09:57.146Z,21.13
2022-07-29T02:12:59.915Z,21.00
2022-07-29T02:16:03.902Z,20.74
2022-07-29T02:19:07.801Z,20.70
2022-07-29T02:22:10.514Z,20.52
2022-07-29T02:25:14.037Z,20.45
2022-07-29T02:28:17.514Z,20.28
2022-07-29T02:31:23.391Z,20.30
2022-07-29T02:34:26.388Z,20.38
2022-07-29T02:37:30.173Z,20.33
2022-07-29T02:40:34.828Z,20.35
2022-07-29T02:43:37.276Z,20.31
2022-07-29T02:46:53.478Z,20.33
2022-07-29T02:49:59.184Z,20.29
2022-07-29T02:53:17.399Z,20.03
2022-07-29T02:56:25.359Z,20.02
2022-07-29T02:59:29.495Z,20.14
2022-07-29T03:02:35.755Z,19.97
2022-07-29T03:05:38.300Z,20.02
2022-07-29T03:08:41.491Z,20.07
2022-07-29T03:11:49.666Z,19.74
2022-07-29T03:14:52.673Z,19.70
2022-07-29T03:17:56.598Z,19.53
2022-07-29T03:20:58.988Z,19.48
2022-07-29T03:24:01.193Z,19.45
2022-07-29T03:27:04.893Z,19.52
2022-07-29T03:30:08.908Z,19.69
2022-07-29T03:33:13.406Z,19.83
2022-07-29T03:36:16.053Z,20.01
2022-07-29T03:39:23.670Z,20.16
2022-07-29T03:42:33.835Z,20.08
2022-07-29T03:45:36.956Z,20.07
2022-07-29T03:48:43.666Z,19.91
2022-07-29T03:51:45.938Z,20.05
2022-07-29T03:54:48.613Z,20.06
2022-07-29T03:57:51.142Z,20.30
2022-07-29T04:00:54.886Z,20.16
2022-07-29T04:03:57.786Z,20.28
2022-07-29T04:07:00.083Z,20.59
2022-07-29T04:10:02.324Z,20.82
2022-07-29T04:13:04.654Z,21.05
2022-07-29T04:16:06.931Z,21.32
2022-07-29T04:19:09.266Z,21.67
2022-07-29T04:22:11.582Z,22.16
2022-07-29T04:25:13.803Z,22.28
2022-07-29T04:28:16.040Z,22.55
2022-07-29T04:31:23.815Z,22.48
2022-07-29T04:34:28.284Z,22.78
2022-07-29T04:37:30.650Z,22.64
2022-07-29T04:40:34.137Z,23.03
2022-07-29T04:43:37.104Z,22.84
2022-07-29T04:46:39.515Z,22.75
2022-07-29T04:49:41.829Z,22.67
2022-07-29T04:52:44.117Z,23.23
2022-07-29T04:55:46.476Z,23.62
2022-07-29T04:58:48.680Z,24.18
2022-07-29T05:01:51.000Z,23.64
2022-07-29T05:04:53.263Z,23.60
2022-07-29T05:07:56.231Z,24.18
2022-07-29T05:10:58.499Z,24.41
2022-07-29T05:14:15.051Z,23.89
2022-07-29T05:17:18.034Z,24.16
2022-07-29T05:20:20.808Z,24.22
2022-07-29T05:23:23.012Z,24.39
2022-07-29T05:26:25.303Z,24.14
2022-07-29T05:29:42.958Z,24.43
2022-07-29T05:32:48.601Z,24.41
2022-07-29T05:35:50.784Z,24.48
2022-07-29T05:38:56.098Z,24.91
2022-07-29T05:41:58.338Z,24.86
2022-07-29T05:45:00.843Z,25.15
2022-07-29T05:48:03.091Z,24.31
2022-07-29T05:51:06.009Z,23.93
2022-07-29T05:54:08.254Z,24.02
2022-07-29T05:57:19.813Z,23.87
2022-07-29T06:00:22.090Z,23.99
2022-07-29T06:03:24.279Z,24.03
2022-07-29T06:06:26.545Z,24.43
2022-07-29T06:09:29.328Z,24.69
2022-07-29T06:12:31.577Z,24.74
2022-07-29T06:15:34.485Z,25.48
2022-07-29T06:18:36.761Z,25.51
2022-07-29T06:21:48.328Z,25.60
2022-07-29T06:24:50.881Z,26.28
2022-07-29T06:27:53.319Z,26.24
2022-07-29T06:30:55.591Z,26.57
2022-07-29T06:33:57.865Z,27.20
2022-07-29T06:37:00.626Z,27.48
2022-07-29T06:40:21.366Z,27.96
2022-07-29T06:43:23.516Z,27.64
2022-07-29T06:46:28.790Z,26.97
2022-07-29T06:49:31.137Z,27.57
2022-07-29T06:52:33.518Z,27.74
2022-07-29T06:55:35.781Z,27.78
2022-07-29T06:58:37.969Z,28.07
2022-07-29T07:01:42.988Z,28.57
2022-07-29T07:04:45.299Z,29.13
2022-07-29T07:07:47.604Z,29.37
2022-07-29T07:10:50.217Z,29.36
2022-07-29T07:13:52.735Z,28.80
2022-07-29T07:16:55.028Z,29.37
2022-07-29T07:19:57.296Z,29.59
2022-07-29T07:22:59.523Z,29.26
2022-07-29T07:26:01.859Z,29.10
2022-07-29T07:29:04.056Z,28.96
2022-07-29T07:32:06.439Z,28.11
2022-07-29T07:35:10.517Z,27.96
2022-07-29T07:38:12.806Z,27.95
2022-07-29T07:41:15.080Z,28.59
2022-07-29T07:44:17.814Z,29.14
2022-07-29T07:47:24.561Z,29.59
2022-07-29T07:50:30.292Z,29.76
2022-07-29T07:53:32.700Z,29.99
2022-07-29T07:56:35.500Z,30.07
2022-07-29T07:59:37.963Z,29.98
2022-07-29T08:02:40.865Z,29.91
2022-07-29T08:05:43.928Z,29.54
2022-07-29T08:08:46.223Z,29.84
2022-07-29T08:11:52.308Z,30.28
2022-07-29T08:14:55.139Z,30.47
2022-07-29T08:17:57.370Z,30.27
2022-07-29T08:20:59.781Z,30.69
2022-07-29T08:24:20.699Z,30.50
2022-07-29T08:27:42.584Z,30.96
2022-07-29T08:30:45.601Z,31.29
2022-07-29T08:33:47.927Z,31.22
2022-07-29T08:36:50.248Z,30.48
2022-07-29T08:39:53.709Z,30.22
2022-07-29T08:42:55.986Z,30.60
2022-07-29T08:45:58.376Z,31.31
2022-07-29T08:49:01.009Z,31.22
2022-07-29T08:52:03.755Z,31.40
2022-07-29T08:55:10.654Z,31.55
2022-07-29T08:58:15.764Z,31.64
2022-07-29T09:01:23.109Z,31.04
2022-07-29T09:04:38.038Z,31.32
2022-07-29T09:07:40.480Z,31.53
2022-07-29T09:10:42.964Z,31.80
2022-07-29T09:13:45.321Z,32.11
2022-07-29T09:16:57.657Z,32.16
2022-07-29T09:20:10.091Z,31.89
2022-07-29T09:23:12.353Z,31.27
2022-07-29T09:26:29.414Z,31.96
2022-07-29T09:29:36.148Z,32.10
2022-07-29T09:33:01.728Z,32.06
2022-07-29T09:36:08.681Z,32.67
2022-07-29T09:39:11.372Z,32.30
2022-07-29T09:42:14.453Z,32.07
2022-07-29T09:45:33.811Z,32.94
2022-07-29T09:48:36.127Z,33.29
2022-07-29T09:51:38.912Z,33.30
2022-07-29T09:54:41.373Z,33.66
2022-07-29T09:57:44.675Z,33.60
2022-07-29T10:00:48.336Z,32.99
2022-07-29T10:03:54.000Z,33.19
2022-07-29T10:07:04.444Z,33.41
2022-07-29T10:10:07.423Z,33.18
2022-07-29T10:13:15.769Z,33.06
2022-07-29T10:16:19.033Z,32.85
2022-07-29T10:19:21.421Z,32.23
2022-07-29T10:22:51.401Z,31.86
2022-07-29T10:25:47.014Z,32.00
2022-07-29T10:28:49.264Z,31.75
2022-07-29T10:31:54.552Z,31.28
2022-07-29T10:35:09.757Z,31.47
2022-07-29T10:38:34.311Z,31.23
2022-07-29T10:42:20.019Z,31.07
2022-07-29T10:45:22.685Z,31.51
2022-07-29T10:48:25.016Z,31.77
2022-07-29T10:51:59.099Z,32.27
2022-07-29T10:55:02.976Z,32.73
2022-07-29T10:58:22.219Z,33.03
2022-07-29T11:01:37.136Z,33.59
2022-07-29T11:04:45.933Z,33.16
2022-07-29T11:08:19.619Z,33.40
2022-07-29T11:11:29.827Z,33.54
2022-07-29T11:15:01.500Z,33.48
2022-07-29T11:18:04.089Z,32.80
2022-07-29T11:21:54.889Z,32.48
2022-07-29T11:25:17.778Z,32.27
2022-07-29T11:28:25.124Z,32.33
2022-07-29T11:31:38.831Z,32.22
2022-07-29T11:34:42.457Z,32.16
2022-07-29T11:37:52.751Z,32.19
2022-07-29T11:41:18.870Z,31.81
2022-07-29T11:45:04.353Z,31.52
2022-07-29T11:48:31.800Z,31.49
2022-07-29T11:51:34.784Z,31.61
2022-07-29T11:54:57.144Z,31.65
2022-07-29T11:58:04.007Z,31.62
2022-07-29T12:01:07.354Z,31.78
2022-07-29T12:04:09.624Z,32.06
2022-07-29T12:07:15.643Z,32.79
2022-07-29T12:10:19.736Z,33.19
2022-07-29T12:13:39.714Z,33.03
2022-07-29T12:16:41.994Z,33.16
2022-07-29T12:19:44.633Z,32.79
2022-07-29T12:22:49.472Z,32.12
2022-07-29T12:25:51.758Z,32.20
2022-07-29T12:28:56.232Z,32.03
2022-07-29T12:31:59.777Z,32.06
2022-07-29T12:35:08.731Z,31.93
2022-07-29T12:38:12.786Z,32.04
2022-07-29T12:41:15.143Z,32.71
2022-07-29T12:44:17.384Z,33.25
2022-07-29T12:47:20.481Z,33.71
2022-07-29T12:50:26.289Z,33.51
2022-07-29T12:53:29.468Z,33.45
2022-07-29T12:56:47.060Z,34.01
2022-07-29T13:00:12.602Z,34.48
2022-07-29T13:03:14.859Z,34.91
2022-07-29T13:06:49.624Z,35.17
2022-07-29T13:09:53.556Z,35.26
2022-07-29T13:13:07.341Z,35.25
2022-07-29T13:16:09.685Z,35.26
2022-07-29T13:19:13.083Z,34.93
2022-07-29T13:22:17.856Z,34.97
2022-07-29T13:25:30.839Z,34.99
2022-07-29T13:28:33.081Z,35.26
2022-07-29T13:31:35.333Z,35.19
2022-07-29T13:34:37.554Z,35.19
2022-07-29T13:37:39.920Z,35.37
2022-07-29T13:40:42.635Z,35.22
2022-07-29T13:43:44.956Z,35.01
2022-07-29T13:46:47.194Z,35.05
2022-07-29T13:49:49.553Z,35.01
2022-07-29T13:52:52.282Z,35.17
2022-07-29T13:55:54.967Z,35.07
2022-07-29T13:58:58.252Z,35.15
2022-07-29T14:02:01.035Z,35.30
2022-07-29T14:05:07.982Z,35.13
2022-07-29T14:08:10.768Z,34.89
2022-07-29T14:11:13.014Z,34.83
2022-07-29T14:14:15.291Z,34.81
2022-07-29T14:17:17.995Z,34.71
2022-07-29T14:20:20.476Z,34.30
2022-07-29T14:23:22.677Z,34.07
2022-07-29T14:26:25.295Z,33.83
2022-07-29T14:29:35.259Z,34.05
2022-07-29T14:32:40.610Z,33.72
2022-07-29T14:35:42.877Z,33.22
2022-07-29T14:38:45.121Z,33.53
2022-07-29T14:41:47.315Z,33.87
2022-07-29T14:44:50.301Z,34.08
2022-07-29T14:47:56.382Z,34.33
2022-07-29T14:51:04.569Z,34.04
2022-07-29T14:54:07.306Z,33.44
2022-07-29T14:57:09.738Z,33.84
2022-07-29T15:00:12.502Z,34.04
2022-07-29T15:03:23.947Z,34.12
2022-07-29T15:06:27.403Z,34.27
2022-07-29T15:09:29.726Z,34.39
2022-07-29T15:12:32.778Z,34.31
2022-07-29T15:15:35.032Z,34.33
2022-07-29T15:18:39.248Z,34.41
2022-07-29T15:21:48.656Z,34.55
2022-07-29T15:24:51.593Z,34.40
2022-07-29T15:27:55.657Z,34.18
2022-07-29T15:31:01.417Z,34.03
2022-07-29T15:34:05.912Z,33.95
2022-07-29T15:37:08.582Z,34.11
2022-07-29T15:40:11.839Z,34.24
2022-07-29T15:43:14.073Z,34.21
2022-07-29T15:46:36.293Z,34.20
2022-07-29T15:49:48.560Z,34.23
2022-07-29T15:52:51.962Z,34.14
2022-07-29T15:55:54.275Z,33.95
2022-07-29T15:58:56.575Z,33.95
2022-07-29T16:01:59.469Z,33.96
2022-07-29T16:05:01.705Z,33.96
2022-07-29T16:08:03.987Z,33.88
2022-07-29T16:11:06.254Z,33.72
2022-07-29T16:14:09.208Z,33.71
2022-07-29T16:17:14.775Z,33.24
2022-07-29T16:20:17.575Z,33.14
2022-07-29T16:23:19.836Z,33.07
2022-07-29T16:26:22.058Z,32.99
2022-07-29T16:29:24.335Z,33.03
2022-07-29T16:32:26.603Z,32.76
2022-07-29T16:35:39.051Z,32.71
2022-07-29T16:38:47.369Z,32.48
2022-07-29T16:41:49.926Z,32.27
2022-07-29T16:44:52.193Z,32.39
2022-07-29T16:48:00.186Z,32.16
2022-07-29T16:51:03.603Z,32.07
2022-07-29T16:54:05.997Z,32.08
2022-07-29T16:57:08.281Z,32.10
2022-07-29T17:00:11.108Z,32.07
2022-07-29T17:03:13.633Z,32.03
2022-07-29T17:06:15.880Z,32.03
2022-07-29T17:09:18.196Z,31.98
2022-07-29T17:12:20.417Z,32.14
2022-07-29T17:15:22.768Z,32.11
2022-07-29T17:18:24.973Z,31.95
2022-07-29T17:21:27.558Z,31.72
2022-07-29T17:24:29.800Z,31.70
2022-07-29T17:27:32.449Z,31.55
2022-07-29T17:30:34.706Z,31.45
2022-07-29T17:33:37.086Z,31.28
2022-07-29T17:36:39.444Z,31.14
2022-07-29T17:39:42.849Z,31.02
2022-07-29T17:42:45.110Z,30.96
2022-07-29T17:45:49.846Z,30.84
2022-07-29T17:48:56.937Z,30.77
2022-07-29T17:52:01.123Z,30.54
2022-07-29T17:55:03.776Z,30.40
2022-07-29T17:58:08.859Z,30.20
2022-07-29T18:01:11.196Z,30.03
2022-07-29T18:04:15.312Z,29.91
2022-07-29T18:07:17.743Z,29.74
2022-07-29T18:10:20.001Z,29.62
2022-07-29T18:13:22.239Z,29.61
2022-07-29T18:16:24.889Z,29.09
2022-07-29T18:19:27.252Z,28.46
2022-07-29T18:22:29.454Z,28.47
2022-07-29T18:25:31.701Z,28.52
2022-07-29T18:28:34.184Z,28.59
2022-07-29T18:31:36.548Z,28.54
2022-07-29T18:34:38.798Z,28.64
2022-07-29T18:38:01.383Z,28.49
2022-07-29T18:41:03.348Z,28.39
2022-07-29T18:44:05.566Z,28.16
2022-07-29T18:47:07.797Z,28.30
2022-07-29T18:50:14.705Z,28.27
2022-07-29T18:53:18.054Z,28.25
2022-07-29T18:56:20.989Z,28.06
2022-07-29T18:59:23.298Z,27.86
2022-07-29T19:02:25.947Z,27.60
2022-07-29T19:05:28.257Z,27.51
2022-07-29T19:08:30.515Z,27.43
2022-07-29T19:11:32.773Z,27.60
2022-07-29T19:14:35.141Z,27.65
2022-07-29T19:17:38.684Z,27.64
2022-07-29T19:20:42.023Z,27.55
2022-07-29T19:24:06.024Z,27.36
2022-07-29T19:27:07.781Z,27.23
2022-07-29T19:30:10.499Z,27.17
2022-07-29T19:33:14.598Z,27.25
2022-07-29T19:36:17.464Z,27.40
2022-07-29T19:39:19.695Z,27.25
2022-07-29T19:42:37.383Z,27.27
2022-07-29T19:45:39.741Z,26.94
2022-07-29T19:48:41.992Z,26.62
2022-07-29T19:51:44.269Z,26.34
2022-07-29T19:54:46.544Z,26.34
2022-07-29T19:57:49.140Z,26.36
2022-07-29T20:00:51.441Z,26.29
2022-07-29T20:03:54.026Z,26.29
2022-07-29T20:07:01.329Z,26.15
2022-07-29T20:10:04.921Z,26.11
2022-07-29T20:13:07.161Z,26.12
2022-07-29T20:16:09.503Z,26.03
2022-07-29T20:19:11.985Z,25.72
2022-07-29T20:22:14.599Z,25.60
2022-07-29T20:25:23.959Z,25.33
2022-07-29T20:28:26.225Z,25.16
2022-07-29T20:31:30.633Z,24.87
2022-07-29T20:34:33.150Z,24.77
2022-07-29T20:37:52.273Z,24.74
2022-07-29T20:40:58.905Z,24.57
2022-07-29T20:44:02.730Z,24.41
2022-07-29T20:47:05.039Z,24.45
2022-07-29T20:50:07.691Z,24.36
2022-07-29T20:53:09.880Z,24.13
2022-07-29T20:56:12.598Z,24.01
2022-07-29T20:59:14.864Z,23.95
2022-07-29T21:02:17.337Z,23.67
2022-07-29T21:05:19.866Z,23.42
2022-07-29T21:08:22.276Z,23.49
2022-07-29T21:11:43.219Z,23.39
2022-07-29T21:14:48.016Z,23.54
2022-07-29T21:17:52.520Z,23.56
2022-07-29T21:20:55.303Z,23.56
2022-07-29T21:23:57.526Z,23.40
2022-07-29T21:27:21.224Z,23.47
2022-07-29T21:30:23.899Z,23.55
2022-07-29T21:33:27.779Z,23.63
2022-07-29T21:39:52.161Z,23.20
2022-07-29T21:42:54.352Z,22.91
2022-07-29T21:45:57.682Z,23.05
2022-07-29T21:48:59.982Z,23.15
2022-07-29T21:52:02.306Z,22.75
2022-07-29T21:55:04.884Z,22.72
2022-07-29T21:58:07.968Z,22.75
2022-07-29T22:01:10.187Z,22.71
2022-07-29T22:04:12.383Z,22.69
2022-07-29T22:07:14.613Z,22.64
2022-07-29T22:10:17.118Z,22.52
2022-07-29T22:13:19.315Z,22.50
2022-07-29T22:16:21.587Z,22.36
2022-07-29T22:19:27.691Z,22.33
2022-07-29T22:22:33.162Z,22.34
2022-07-29T22:25:35.576Z,22.28
2022-07-29T22:28:37.788Z,22.20
2022-07-29T22:31:39.968Z,22.09
2022-07-29T22:34:42.119Z,22.01
2022-07-29T22:37:44.405Z,22.14
2022-07-29T22:40:48.644Z,22.01
2022-07-29T22:43:52.713Z,22.17
2022-07-29T22:46:55.937Z,22.05
2022-07-29T22:49:58.138Z,21.77
2022-07-29T22:53:00.287Z,21.64
2022-07-29T22:56:02.641Z,21.65
2022-07-29T22:59:04.910Z,21.63
2022-07-29T23:02:07.093Z,21.77
2022-07-29T23:05:10.458Z,21.59
2022-07-29T23:08:12.724Z,21.49
2022-07-29T23:11:14.884Z,21.43
2022-07-29T23:14:17.065Z,21.37
2022-07-29T23:17:19.304Z,21.38
2022-07-29T23:20:21.546Z,21.31
2022-07-29T23:23:23.801Z,21.43
2022-07-29T23:26:25.949Z,21.57
2022-07-29T23:29:28.166Z,21.63
2022-07-29T23:32:30.410Z,21.63
2022-07-29T23:35:32.923Z,21.69
2022-07-29T23:38:35.224Z,21.73
2022-07-29T23:41:38.053Z,21.58
2022-07-29T23:44:40.230Z,21.49
2022-07-29T23:47:43.028Z,21.65
2022-07-29T23:50:45.185Z,21.65
2022-07-29T23:53:53.482Z,21.87
2022-07-29T23:56:57.938Z,21.79
